Time;durP1;ratioP1;P1;durP2;ratioP2;P2;SDS_P1;SDS_P2;PMS_P1;PMS_P2;Temp;Humidity;BMP_temperature;BMP_pressure;BME280_temperature;BME280_humidity;BME280_pressure;Samples;Min_cycle;Max_cycle;Signal;HPM_P1;HPM_P2
2023/08/27 00:02:09;;;;;;;3.10;1.80;;;16.60;99.90;;;;;;5048781;28;20083;-81
2023/08/27 00:04:35;;;;;;;3.50;1.50;;;16.60;99.90;;;;;;5024397;28;20025;-81
2023/08/27 00:07:01;;;;;;;6.40;2.15;;;16.50;99.90;;;;;;5050765;28;20465;-81
2023/08/27 00:09:27;;;;;;;7.53;1.60;;;16.50;99.90;;;;;;5050624;28;20092;-81
2023/08/27 00:11:53;;;;;;;4.13;1.35;;;16.50;99.90;;;;;;5050254;28;20518;-81
2023/08/27 00:14:20;;;;;;;3.58;1.52;;;16.40;99.90;;;;;;5050824;28;20029;-81
2023/08/27 00:16:46;;;;;;;7.20;2.28;;;16.30;99.90;;;;;;5060014;28;20398;-80
2023/08/27 00:19:14;;;;;;;3.17;1.42;;;16.30;99.90;;;;;;5027994;28;20037;-81
2023/08/27 00:21:41;;;;;;;3.30;1.63;;;16.10;99.90;;;;;;5049779;28;20044;-81
2023/08/27 00:24:07;;;;;;;4.90;1.92;;;16.20;99.90;;;;;;5049672;28;20044;-81
2023/08/27 00:26:34;;;;;;;6.03;1.77;;;16.20;99.90;;;;;;5050202;28;20028;-81
2023/08/27 00:29:00;;;;;;;3.95;1.70;;;16.20;99.90;;;;;;5028210;28;20053;-81
2023/08/27 00:31:26;;;;;;;3.35;1.52;;;16.20;99.90;;;;;;5020762;28;20032;-81
2023/08/27 00:33:52;;;;;;;5.65;1.65;;;16.10;99.90;;;;;;5031910;28;20041;-81
2023/08/27 00:36:18;;;;;;;5.35;1.25;;;16.10;99.90;;;;;;5039044;28;20041;-81
2023/08/27 00:38:44;;;;;;;2.95;1.55;;;16.10;99.90;;;;;;5050042;28;20049;-81
2023/08/27 00:41:10;;;;;;;6.72;1.83;;;16.10;99.90;;;;;;5050378;28;20060;-81
2023/08/27 00:43:37;;;;;;;3.63;1.67;;;16.10;99.90;;;;;;5050489;28;20040;-81
2023/08/27 00:46:05;;;;;;;6.72;1.70;;;16.10;99.90;;;;;;5040175;28;20042;-81
2023/08/27 00:48:32;;;;;;;2.33;1.23;;;16.10;99.90;;;;;;5050136;28;20053;-81
2023/08/27 00:50:58;;;;;;;2.95;1.45;;;16.00;99.90;;;;;;5015182;28;20052;-81
2023/08/27 00:53:24;;;;;;;3.30;1.40;;;16.00;99.90;;;;;;5050319;28;20028;-80
2023/08/27 00:55:52;;;;;;;5.63;2.28;;;15.90;99.90;;;;;;5028550;28;20475;-81
2023/08/27 00:58:18;;;;;;;2.60;1.42;;;15.90;99.90;;;;;;5050565;28;20037;-81
2023/08/27 01:00:44;;;;;;;2.55;1.48;;;15.90;99.90;;;;;;5050575;28;20029;-81
2023/08/27 01:03:10;;;;;;;2.67;1.27;;;16.00;99.90;;;;;;5033972;28;20052;-81
2023/08/27 01:05:37;;;;;;;3.50;1.20;;;16.00;99.90;;;;;;5050500;28;20454;-81
2023/08/27 01:08:21;;;;;;;5.95;1.92;;;16.10;99.90;;;;;;5026665;28;20050;-81
2023/08/27 01:11:10;;;;;;;8.35;2.20;;;16.00;99.90;;;;;;5020768;28;20398;-80
2023/08/27 01:13:41;;;;;;;2.28;1.42;;;16.00;99.90;;;;;;5049828;28;20036;-81
2023/08/27 01:16:07;;;;;;;;;;;15.90;99.90;;;;;;5028358;28;20044;-81
2023/08/27 01:18:34;;;;;;;4.70;1.27;;;15.90;99.90;;;;;;5032128;28;20284;-81
2023/08/27 01:21:19;;;;;;;3.65;1.60;;;15.90;99.90;;;;;;5049371;28;20059;-81
2023/08/27 01:23:45;;;;;;;3.80;1.80;;;16.00;99.90;;;;;;5050637;28;20036;-81
2023/08/27 01:26:21;;;;;;;4.18;1.30;;;16.00;99.90;;;;;;5031193;28;20469;-81
2023/08/27 01:28:58;;;;;;;2.50;1.30;;;16.00;99.90;;;;;;5021871;28;20410;-81
2023/08/27 01:31:30;;;;;;;3.92;1.95;;;16.10;99.90;;;;;;5050351;28;20496;-81
2023/08/27 01:33:59;;;;;;;2.03;1.25;;;16.10;99.90;;;;;;5048387;28;20029;-81
2023/08/27 01:36:27;;;;;;;2.83;1.40;;;16.00;99.90;;;;;;5050971;28;20052;-81
2023/08/27 01:38:53;;;;;;;5.00;1.50;;;16.10;99.90;;;;;;5034333;28;20037;-81
2023/08/27 01:41:21;;;;;;;5.50;1.63;;;16.00;99.90;;;;;;5043390;28;20375;-81
2023/08/27 01:43:47;;;;;;;2.35;1.20;;;16.00;99.90;;;;;;5053987;28;20029;-81
2023/08/27 01:46:13;;;;;;;5.97;1.85;;;16.00;99.90;;;;;;5052957;28;20017;-81
2023/08/27 01:48:39;;;;;;;3.80;1.75;;;16.10;99.90;;;;;;5053478;28;20128;-81
2023/08/27 01:51:06;;;;;;;2.92;1.08;;;16.10;99.90;;;;;;5052592;28;20040;-81
2023/08/27 01:53:32;;;;;;;2.85;1.17;;;16.20;99.90;;;;;;5025135;28;20411;-81
2023/08/27 01:55:58;;;;;;;5.65;1.42;;;16.20;99.90;;;;;;5051917;28;20045;-80
2023/08/27 01:58:24;;;;;;;2.47;1.15;;;16.10;99.90;;;;;;5035158;28;20044;-80
2023/08/27 02:00:51;;;;;;;5.60;1.33;;;16.10;99.90;;;;;;5035165;28;20136;-80
2023/08/27 02:03:18;;;;;;;5.63;1.83;;;16.00;99.90;;;;;;5053015;28;20040;-80
2023/08/27 02:05:47;;;;;;;3.10;1.70;;;16.00;99.90;;;;;;5034635;28;20449;-80
2023/08/27 02:08:13;;;;;;;2.85;1.60;;;15.90;99.90;;;;;;5043207;28;20056;-80
2023/08/27 02:10:39;;;;;;;3.58;1.80;;;16.00;99.90;;;;;;5043352;28;20398;-80
2023/08/27 02:13:05;;;;;;;4.18;1.35;;;16.00;99.90;;;;;;5033419;28;20037;-80
2023/08/27 02:15:32;;;;;;;5.15;1.70;;;16.00;99.90;;;;;;5052931;28;20036;-80
2023/08/27 02:17:58;;;;;;;3.65;1.75;;;16.00;99.90;;;;;;5034766;28;20497;-80
2023/08/27 02:20:24;;;;;;;3.53;1.85;;;16.00;99.90;;;;;;5031763;28;20391;-80
2023/08/27 02:22:50;;;;;;;3.60;1.60;;;16.00;99.90;;;;;;5020080;28;20068;-80
2023/08/27 02:25:16;;;;;;;2.97;1.77;;;16.00;99.90;;;;;;5017054;28;20044;-80
2023/08/27 02:27:42;;;;;;;3.95;1.60;;;16.00;99.90;;;;;;5034269;28;20048;-81
2023/08/27 02:30:09;;;;;;;3.65;1.73;;;16.00;99.90;;;;;;5051701;28;20029;-81
2023/08/27 02:32:35;;;;;;;4.00;1.55;;;16.00;99.90;;;;;;5031314;28;20049;-81
2023/08/27 02:35:02;;;;;;;3.72;1.88;;;16.00;99.90;;;;;;5051959;28;20033;-80
2023/08/27 02:37:28;;;;;;;2.88;1.27;;;16.00;99.90;;;;;;5053880;28;20048;-80
2023/08/27 02:39:54;;;;;;;3.95;1.70;;;16.00;99.90;;;;;;5044478;28;20450;-80
2023/08/27 02:42:22;;;;;;;5.85;1.52;;;16.00;99.90;;;;;;5050135;28;20037;-80
2023/08/27 02:44:48;;;;;;;4.53;1.67;;;15.90;99.90;;;;;;5025536;28;20046;-80
2023/08/27 02:47:14;;;;;;;4.15;1.75;;;15.90;99.90;;;;;;5051765;28;20032;-80
2023/08/27 02:49:40;;;;;;;3.45;1.92;;;15.80;99.90;;;;;;5051651;28;20053;-80
2023/08/27 02:52:07;;;;;;;4.15;1.80;;;15.80;99.90;;;;;;5050409;28;20056;-80
2023/08/27 02:54:33;;;;;;;2.47;1.30;;;15.90;99.90;;;;;;5034000;28;20041;-81
2023/08/27 02:56:59;;;;;;;2.90;1.42;;;15.90;99.90;;;;;;5051910;28;20106;-80
2023/08/27 02:59:25;;;;;;;3.22;1.75;;;15.80;99.90;;;;;;5052276;28;20036;-80
2023/08/27 03:01:52;;;;;;;3.33;1.20;;;15.80;99.90;;;;;;5034016;28;20041;-80
2023/08/27 03:04:19;;;;;;;3.83;1.80;;;15.80;99.90;;;;;;5023113;28;20033;-80
2023/08/27 03:06:45;;;;;;;2.88;1.77;;;15.80;99.90;;;;;;5029423;28;20044;-80
2023/08/27 03:09:11;;;;;;;4.70;2.03;;;15.90;99.90;;;;;;5051601;28;20104;-80
2023/08/27 03:11:37;;;;;;;8.93;2.75;;;15.90;99.90;;;;;;5052236;28;20029;-80
2023/08/27 03:14:03;;;;;;;4.40;1.85;;;16.00;99.90;;;;;;5033690;28;20025;-80
2023/08/27 03:16:29;;;;;;;5.22;1.90;;;16.00;99.90;;;;;;5052210;28;20033;-81
2023/08/27 03:18:56;;;;;;;6.70;1.98;;;16.00;99.90;;;;;;5051438;28;20029;-81
2023/08/27 03:21:22;;;;;;;2.72;1.65;;;16.00;99.90;;;;;;5052061;28;20040;-81
2023/08/27 03:23:48;;;;;;;4.40;2.05;;;15.90;99.90;;;;;;5028255;28;20033;-81
2023/08/27 03:26:14;;;;;;;4.20;1.70;;;15.90;99.90;;;;;;5032107;28;20072;-81
2023/08/27 03:28:41;;;;;;;3.58;2.35;;;16.00;99.90;;;;;;5033950;28;20048;-81
2023/08/27 03:31:08;;;;;;;6.38;2.92;;;15.90;99.90;;;;;;5028012;28;20029;-81
2023/08/27 03:33:34;;;;;;;3.15;1.42;;;16.00;99.90;;;;;;5073040;28;20028;-79
2023/08/27 03:36:01;;;;;;;2.22;1.30;;;15.90;99.90;;;;;;5054256;28;20041;-81
2023/08/27 03:38:29;;;;;;;3.42;1.80;;;15.90;99.90;;;;;;5051524;28;20037;-81
2023/08/27 03:40:55;;;;;;;3.38;1.65;;;15.80;99.90;;;;;;5034532;28;20037;-81
2023/08/27 03:43:22;;;;;;;4.30;2.58;;;15.80;99.90;;;;;;5015911;28;20048;-81
2023/08/27 03:45:48;;;;;;;2.72;1.80;;;15.90;99.90;;;;;;5051820;28;20029;-81
2023/08/27 03:48:14;;;;;;;6.78;2.47;;;16.00;99.90;;;;;;5050581;28;20043;-81
2023/08/27 03:50:41;;;;;;;4.43;2.15;;;16.00;99.90;;;;;;5033954;28;20049;-81
2023/08/27 03:53:07;;;;;;;6.05;3.00;;;16.00;99.90;;;;;;5034714;28;20040;-81
2023/08/27 03:55:41;;;;;;;4.35;2.00;;;16.00;99.90;;;;;;5030393;28;20029;-81
2023/08/27 03:58:08;;;;;;;5.32;3.40;;;16.00;99.90;;;;;;5050787;28;20096;-81
2023/08/27 04:00:35;;;;;;;2.28;1.38;;;16.00;99.90;;;;;;5050709;28;20556;-81
2023/08/27 04:03:02;;;;;;;4.32;1.80;;;15.90;99.90;;;;;;5050563;28;20360;-80
2023/08/27 04:05:28;;;;;;;4.43;1.70;;;16.00;99.90;;;;;;5051206;28;20054;-81
2023/08/27 04:07:54;;;;;;;6.13;1.52;;;15.90;99.90;;;;;;5032667;28;20052;-81
2023/08/27 04:10:20;;;;;;;3.60;1.58;;;15.80;99.90;;;;;;5025977;28;20037;-81
2023/08/27 04:12:47;;;;;;;3.33;1.58;;;15.80;99.90;;;;;;5032967;28;20049;-80
2023/08/27 04:15:13;;;;;;;3.53;1.92;;;15.80;99.90;;;;;;5029751;28;20041;-80
2023/08/27 04:17:39;;;;;;;3.30;2.30;;;15.70;99.90;;;;;;5030463;28;20398;-81
2023/08/27 04:20:06;;;;;;;3.88;1.65;;;15.70;99.90;;;;;;5022515;28;20053;-80
2023/08/27 04:22:32;;;;;;;3.05;1.75;;;15.70;99.90;;;;;;5049661;28;20052;-80
2023/08/27 04:24:59;;;;;;;3.40;1.30;;;15.70;99.90;;;;;;5032790;28;20048;-81
2023/08/27 04:27:26;;;;;;;3.33;1.70;;;15.70;1.00;;;;;;5031744;28;20046;-80
2023/08/27 04:29:52;;;;;;;4.07;2.35;;;15.70;1.00;;;;;;5039660;28;20037;-82
2023/08/27 04:32:19;;;;;;;4.88;1.67;;;15.70;1.00;;;;;;5032073;28;20045;-80
2023/08/27 04:34:45;;;;;;;2.33;1.70;;;15.70;1.00;;;;;;5027513;28;20045;-80
2023/08/27 04:37:11;;;;;;;4.35;2.53;;;15.70;1.00;;;;;;5032697;28;20045;-80
2023/08/27 04:39:37;;;;;;;6.43;3.63;;;15.70;1.00;;;;;;5050624;28;20041;-80
2023/08/27 04:42:03;;;;;;;5.80;2.65;;;15.70;1.00;;;;;;5032329;28;20037;-80
2023/08/27 04:44:31;;;;;;;4.90;1.90;;;15.70;1.00;;;;;;5027492;28;20478;-81
2023/08/27 04:46:57;;;;;;;4.95;2.13;;;15.70;1.00;;;;;;5050784;28;20033;-81
2023/08/27 04:49:23;;;;;;;5.57;2.47;;;15.80;1.00;;;;;;5050197;28;20071;-82
2023/08/27 04:51:49;;;;;;;5.57;2.50;;;15.80;1.00;;;;;;5029038;28;20157;-81
2023/08/27 04:54:15;;;;;;;4.95;2.38;;;15.80;1.00;;;;;;5029188;28;20045;-81
2023/08/27 04:56:41;;;;;;;4.88;1.95;;;15.80;99.90;;;;;;5019513;28;20041;-81
2023/08/27 04:59:09;;;;;;;5.68;3.05;;;15.70;99.90;;;;;;5031386;28;20045;-81
2023/08/27 05:01:35;;;;;;;4.43;1.90;;;15.70;99.90;;;;;;5050238;28;20473;-81
2023/08/27 05:04:02;;;;;;;3.65;2.33;;;15.70;99.90;;;;;;5050476;28;20044;-80
2023/08/27 05:06:28;;;;;;;3.15;2.03;;;15.70;1.00;;;;;;5050685;28;20386;-81
2023/08/27 05:08:54;;;;;;;3.92;2.00;;;15.80;1.00;;;;;;5050457;28;20056;-81
2023/08/27 05:11:20;;;;;;;4.18;2.20;;;15.90;1.00;;;;;;5022901;28;20382;-81
2023/08/27 05:13:47;;;;;;;4.78;2.60;;;15.90;1.00;;;;;;5021657;28;20045;-81
2023/08/27 05:16:13;;;;;;;4.88;2.78;;;15.90;99.90;;;;;;5053707;28;20036;-81
2023/08/27 05:18:42;;;;;;;3.83;2.33;;;15.90;99.90;;;;;;5033962;28;20049;-81
2023/08/27 05:21:08;;;;;;;2.67;1.77;;;15.90;99.90;;;;;;5022766;28;20049;-81
2023/08/27 05:23:34;;;;;;;3.30;2.13;;;16.00;99.90;;;;;;5035415;28;20041;-80
2023/08/27 05:26:00;;;;;;;2.95;1.83;;;15.90;99.90;;;;;;5026357;28;20048;-81
2023/08/27 05:28:26;;;;;;;3.65;1.77;;;16.00;99.90;;;;;;5035555;28;20055;-81
2023/08/27 05:30:53;;;;;;;3.17;1.63;;;16.00;99.90;;;;;;5065377;28;20036;-80
2023/08/27 05:33:19;;;;;;;3.53;1.80;;;16.10;99.90;;;;;;5076868;28;20033;-81
2023/08/27 05:35:45;;;;;;;2.45;1.60;;;16.10;99.90;;;;;;5076183;28;20047;-80
2023/08/27 05:38:11;;;;;;;3.13;2.10;;;16.20;99.90;;;;;;5036158;28;20044;-80
2023/08/27 05:40:38;;;;;;;7.32;2.92;;;16.20;99.90;;;;;;5036685;28;20043;-80
2023/08/27 05:43:04;;;;;;;3.28;2.08;;;16.30;99.90;;;;;;5053463;28;20036;-80
2023/08/27 05:45:30;;;;;;;4.18;2.28;;;16.30;99.90;;;;;;5034371;28;20045;-81
2023/08/27 05:47:56;;;;;;;4.43;2.05;;;16.30;99.90;;;;;;5053921;28;20049;-81
2023/08/27 05:50:23;;;;;;;5.78;3.28;;;16.40;99.90;;;;;;5032467;28;20041;-81
2023/08/27 05:52:50;;;;;;;4.57;3.00;;;16.50;99.90;;;;;;5034479;28;20466;-80
2023/08/27 05:55:16;;;;;;;5.88;3.40;;;16.70;99.90;;;;;;5052467;28;20056;-81
2023/08/27 05:57:42;;;;;;;5.60;2.67;;;16.80;99.90;;;;;;5035422;28;20052;-81
2023/08/27 06:00:10;;;;;;;4.18;2.42;;;17.00;99.90;;;;;;5034484;28;20056;-81
2023/08/27 06:02:39;;;;;;;4.72;3.20;;;17.10;99.90;;;;;;5052194;28;20047;-81
2023/08/27 06:05:06;;;;;;;4.32;2.42;;;17.20;99.90;;;;;;5031737;28;20048;-80
2023/08/27 06:07:32;;;;;;;5.20;2.60;;;17.30;99.90;;;;;;5034941;28;20040;-81
2023/08/27 06:09:59;;;;;;;4.63;2.60;;;17.40;99.90;;;;;;5036052;28;20052;-81
2023/08/27 06:12:25;;;;;;;4.07;2.75;;;17.50;99.90;;;;;;5052938;28;20032;-81
2023/08/27 06:14:51;;;;;;;4.43;3.03;;;17.50;99.90;;;;;;5053997;28;20033;-81
2023/08/27 06:17:17;;;;;;;4.68;2.40;;;17.50;99.90;;;;;;5052574;28;20421;-82
2023/08/27 06:19:43;;;;;;;3.92;2.33;;;17.60;99.90;;;;;;5054071;28;20033;-81
2023/08/27 06:22:09;;;;;;;6.15;3.15;;;17.60;99.90;;;;;;5034668;28;20053;-81
2023/08/27 06:24:37;;;;;;;4.45;2.47;;;17.60;99.90;;;;;;5034183;28;20037;-82
2023/08/27 06:27:03;;;;;;;4.45;1.77;;;17.60;99.90;;;;;;5024868;28;20052;-82
2023/08/27 06:29:29;;;;;;;6.60;2.83;;;17.60;99.90;;;;;;5052144;28;20045;-82
2023/08/27 06:31:56;;;;;;;5.03;3.13;;;17.60;99.90;;;;;;5051059;28;20060;-82
2023/08/27 06:34:23;;;;;;;6.00;2.50;;;17.60;99.90;;;;;;5041845;28;20054;-81
2023/08/27 06:36:50;;;;;;;9.68;2.95;;;17.60;99.90;;;;;;5034510;28;20047;-81
2023/08/27 06:39:17;;;;;;;6.45;3.42;;;17.60;99.90;;;;;;5033132;28;20056;-81
2023/08/27 06:41:43;;;;;;;4.57;3.00;;;17.70;99.90;;;;;;5017652;28;20052;-81
2023/08/27 06:44:12;;;;;;;6.03;3.10;;;17.70;99.90;;;;;;5027831;28;20086;-82
2023/08/27 06:46:40;;;;;;;7.20;3.15;;;17.70;99.90;;;;;;5018059;28;20044;-82
2023/08/27 06:49:06;;;;;;;6.05;3.25;;;17.70;99.90;;;;;;5031910;28;20053;-82
2023/08/27 06:51:32;;;;;;;6.90;3.80;;;17.70;99.90;;;;;;5052233;28;20040;-81
2023/08/27 06:53:59;;;;;;;7.35;3.58;;;17.80;99.90;;;;;;5029743;28;20041;-82
2023/08/27 06:56:26;;;;;;;6.72;3.58;;;17.80;99.90;;;;;;5033874;28;20067;-82
2023/08/27 06:58:53;;;;;;;5.80;3.45;;;17.80;99.90;;;;;;5035899;28;20471;-82
2023/08/27 07:01:19;;;;;;;6.90;3.00;;;17.80;97.60;;;;;;5033142;28;20033;-82
2023/08/27 07:03:45;;;;;;;4.95;2.90;;;17.90;99.90;;;;;;5024540;28;20047;-83
2023/08/27 07:06:12;;;;;;;6.20;3.50;;;18.00;98.20;;;;;;5020775;28;20410;-81
2023/08/27 07:08:38;;;;;;;5.93;3.25;;;18.10;96.00;;;;;;5052475;28;20033;-82
2023/08/27 07:11:04;;;;;;;5.25;3.47;;;18.10;79.90;;;;;;5052364;28;20040;-82
2023/08/27 07:13:31;;;;;;;8.75;4.25;;;18.20;61.90;;;;;;5029841;28;20505;-81
2023/08/27 07:15:58;;;;;;;8.98;3.95;;;18.20;60.20;;;;;;5034028;28;20052;-82
2023/08/27 07:18:24;;;;;;;5.50;3.42;;;18.20;54.10;;;;;;5032730;28;20414;-81
2023/08/27 07:20:51;;;;;;;4.82;3.42;;;18.30;49.90;;;;;;5038144;28;20376;-82
2023/08/27 07:23:17;;;;;;;5.10;3.55;;;18.20;33.30;;;;;;5032032;28;20399;-81
2023/08/27 07:25:43;;;;;;;7.20;3.78;;;18.10;54.10;;;;;;5030077;28;20048;-82
2023/08/27 07:28:10;;;;;;;6.63;3.65;;;18.10;62.20;;;;;;5032458;28;20038;-82
2023/08/27 07:30:37;;;;;;;10.10;4.95;;;18.10;61.00;;;;;;5052678;28;20088;-82
2023/08/27 07:33:06;;;;;;;7.57;3.88;;;18.10;69.40;;;;;;5053334;28;20037;-81
2023/08/27 07:35:32;;;;;;;5.78;3.65;;;18.20;58.20;;;;;;5066938;28;20025;-81
2023/08/27 07:37:59;;;;;;;7.03;4.07;;;18.30;38.70;;;;;;5056467;28;20037;-81
2023/08/27 07:40:25;;;;;;;7.70;4.95;;;18.40;22.40;;;;;;5051387;28;20036;-82
2023/08/27 07:42:52;;;;;;;7.82;5.20;;;18.50;4.50;;;;;;5033802;28;20052;-82
2023/08/27 07:45:18;;;;;;;9.68;5.55;;;18.70;1.00;;;;;;5051296;28;20033;-81
2023/08/27 07:47:44;;;;;;;10.45;5.47;;;18.90;1.00;;;;;;5040480;28;20049;-82
2023/08/27 07:50:10;;;;;;;8.40;5.03;;;19.00;1.00;;;;;;5051199;28;20060;-84
2023/08/27 07:52:38;;;;;;;6.97;4.32;;;19.00;1.00;;;;;;5033710;28;20049;-83
2023/08/27 07:55:05;;;;;;;5.13;3.80;;;18.70;1.00;;;;;;5033383;28;20482;-82
2023/08/27 07:57:31;;;;;;;7.35;4.75;;;18.90;1.00;;;;;;5051192;28;20036;-82
2023/08/27 07:59:59;;;;;;;7.43;5.35;;;19.10;1.00;;;;;;5030918;28;20045;-83
2023/08/27 08:02:25;;;;;;;5.40;3.17;;;19.30;1.00;;;;;;5051216;28;20148;-82
2023/08/27 08:04:51;;;;;;;8.90;5.32;;;19.40;1.00;;;;;;5020609;28;20064;-81
2023/08/27 08:07:17;;;;;;;4.63;3.15;;;19.60;99.90;;;;;;5050648;28;20025;-82
2023/08/27 08:09:43;;;;;;;7.60;3.85;;;19.70;99.90;;;;;;5051208;28;20032;-82
2023/08/27 08:12:09;;;;;;;6.07;3.88;;;19.70;99.90;;;;;;5051216;28;20033;-83
2023/08/27 08:14:36;;;;;;;6.20;3.80;;;19.70;99.90;;;;;;5050502;28;20036;-82
2023/08/27 08:17:02;;;;;;;6.20;3.33;;;19.80;99.90;;;;;;5051364;28;20032;-83
2023/08/27 08:19:28;;;;;;;5.60;3.95;;;19.80;99.90;;;;;;5050723;28;20033;-82
2023/08/27 08:21:54;;;;;;;5.50;3.00;;;19.80;99.90;;;;;;5051363;28;20032;-82
2023/08/27 08:24:21;;;;;;;5.47;3.25;;;19.80;99.90;;;;;;5049456;28;20443;-82
2023/08/27 08:26:49;;;;;;;4.85;2.80;;;19.80;99.90;;;;;;5050971;28;20055;-82
2023/08/27 08:29:15;;;;;;;4.65;2.83;;;19.80;99.90;;;;;;5049022;28;20041;-82
2023/08/27 08:31:41;;;;;;;7.82;2.63;;;19.80;99.90;;;;;;5051357;28;20386;-81
2023/08/27 08:34:09;;;;;;;5.50;2.55;;;20.00;99.90;;;;;;5021494;28;20421;-81
2023/08/27 08:36:35;;;;;;;4.43;2.60;;;20.20;99.90;;;;;;5033957;28;20047;-81
2023/08/27 08:39:01;;;;;;;4.90;3.08;;;20.40;99.90;;;;;;5031813;28;20029;-82
2023/08/27 08:41:28;;;;;;;4.43;1.90;;;20.60;99.90;;;;;;5054617;28;20041;-82
2023/08/27 08:44:35;;;;;;;5.68;2.40;;;20.90;99.90;;;;;;5050900;28;20029;-82
2023/08/27 08:47:03;;;;;;;5.40;2.38;;;21.00;99.90;;;;;;5026949;28;20489;-82
2023/08/27 08:49:32;;;;;;;3.35;2.40;;;21.10;97.20;;;;;;5054397;28;20041;-82
2023/08/27 08:52:04;;;;;;;3.17;1.92;;;21.20;99.90;;;;;;5053346;28;20040;-83
2023/08/27 08:54:30;;;;;;;5.50;2.53;;;21.30;77.90;;;;;;5042698;28;20475;-83
2023/08/27 08:57:00;;;;;;;4.55;2.17;;;21.50;18.60;;;;;;5054644;28;20249;-83
2023/08/27 08:59:28;;;;;;;3.20;2.33;;;21.50;7.10;;;;;;5054508;28;20362;-83
2023/08/27 09:01:54;;;;;;;4.35;2.40;;;21.70;10.20;;;;;;5055349;28;20390;-82
2023/08/27 09:04:22;;;;;;;3.42;2.38;;;22.10;1.00;;;;;;5054296;28;20048;-82
2023/08/27 09:06:49;;;;;;;6.45;2.65;;;21.90;1.00;;;;;;5054637;28;20382;-81
2023/08/27 09:09:18;;;;;;;3.75;2.13;;;22.00;1.00;;;;;;5036341;28;20029;-83
2023/08/27 09:11:45;;;;;;;4.10;2.40;;;22.20;1.00;;;;;;5053303;28;20041;-82
2023/08/27 09:14:11;;;;;;;4.18;2.08;;;22.10;1.00;;;;;;5054823;28;20048;-83
2023/08/27 09:16:38;;;;;;;3.30;2.30;;;21.70;1.00;;;;;;5053331;28;20037;-81
2023/08/27 09:19:04;;;;;;;3.28;2.33;;;21.60;1.00;;;;;;5054413;28;20351;-82
2023/08/27 09:21:30;;;;;;;6.07;2.53;;;21.80;1.00;;;;;;5053634;28;20032;-80
2023/08/27 09:23:57;;;;;;;3.67;2.60;;;21.80;1.00;;;;;;5053579;28;20025;-82
2023/08/27 09:26:24;;;;;;;3.10;1.98;;;22.10;1.00;;;;;;5053649;28;20033;-82
2023/08/27 09:28:50;;;;;;;4.80;2.13;;;22.50;1.00;;;;;;5053799;28;20355;-82
2023/08/27 09:31:39;;;;;;;4.90;2.05;;;22.70;99.90;;;;;;5035736;28;20075;-82
2023/08/27 09:34:06;;;;;;;7.97;2.90;;;22.80;1.00;;;;;;5053943;28;20104;-82
2023/08/27 09:36:38;;;;;;;5.07;2.10;;;22.70;1.00;;;;;;5053670;28;20029;-82
2023/08/27 09:39:13;;;;;;;2.53;1.70;;;22.50;1.00;;;;;;5054474;28;20037;-83
2023/08/27 09:41:47;;;;;;;3.60;1.70;;;22.30;99.90;;;;;;5049942;28;20068;-83
2023/08/27 09:44:14;;;;;;;2.95;2.00;;;22.30;1.00;;;;;;5035683;28;20040;-81
2023/08/27 09:46:42;;;;;;;4.15;2.28;;;22.00;1.00;;;;;;5034849;28;20038;-82
2023/08/27 09:49:09;;;;;;;3.70;1.98;;;22.00;1.00;;;;;;5018707;28;20053;-82
2023/08/27 09:51:37;;;;;;;5.90;2.28;;;21.90;1.00;;;;;;5053153;28;20040;-81
2023/08/27 09:54:14;;;;;;;2.95;2.17;;;21.50;1.00;;;;;;5053744;28;20413;-81
2023/08/27 09:56:48;;;;;;;2.83;1.60;;;21.30;1.00;;;;;;5050887;28;20025;-81
2023/08/27 09:59:18;;;;;;;2.95;1.52;;;21.60;1.00;;;;;;5052250;28;20044;-82
2023/08/27 10:01:49;;;;;;;3.97;2.22;;;22.00;1.00;;;;;;5035070;28;20040;-82
2023/08/27 10:04:17;;;;;;;3.58;2.28;;;22.00;1.00;;;;;;5053885;28;20031;-81
2023/08/27 10:06:44;;;;;;;5.03;2.65;;;21.90;1.00;;;;;;5053141;28;20048;-82
2023/08/27 10:09:10;;;;;;;3.13;1.67;;;21.70;1.00;;;;;;5053709;28;20029;-84
2023/08/27 10:11:37;;;;;;;3.63;1.77;;;21.50;1.00;;;;;;5052787;28;20048;-82
2023/08/27 10:14:04;;;;;;;2.63;1.60;;;21.50;1.00;;;;;;5053486;28;20036;-83
2023/08/27 10:16:34;;;;;;;5.95;1.58;;;21.50;1.00;;;;;;5052890;28;20029;-83
2023/08/27 10:19:01;;;;;;;3.58;2.15;;;21.60;1.00;;;;;;5053844;28;20052;-83
2023/08/27 10:21:28;;;;;;;2.90;1.33;;;21.60;1.00;;;;;;5052982;28;20033;-83
2023/08/27 10:23:55;;;;;;;2.17;1.38;;;21.70;1.00;;;;;;5035231;28;20032;-83
2023/08/27 10:26:23;;;;;;;2.78;1.25;;;22.00;1.00;;;;;;5053385;28;20040;-80
2023/08/27 10:28:52;;;;;;;3.15;1.42;;;22.30;99.90;;;;;;5055424;28;20037;-83
2023/08/27 10:31:18;;;;;;;3.00;1.65;;;22.40;99.90;;;;;;5055091;28;20033;-83
2023/08/27 10:33:44;;;;;;;2.90;1.33;;;22.50;99.90;;;;;;5066591;28;20040;-81
2023/08/27 10:36:16;;;;;;;3.88;1.67;;;22.60;99.90;;;;;;5077517;28;20013;-82
2023/08/27 10:38:44;;;;;;;2.90;1.80;;;22.70;99.90;;;;;;5076213;28;20124;-82
2023/08/27 10:41:15;;;;;;;2.15;1.08;;;22.80;99.90;;;;;;5077456;28;20017;-81
2023/08/27 10:43:41;;;;;;;2.42;1.70;;;23.00;99.90;;;;;;5068976;28;20389;-82
2023/08/27 10:46:14;;;;;;;3.15;1.10;;;22.70;99.90;;;;;;5055310;28;20060;-82
2023/08/27 10:48:41;;;;;;;2.15;1.08;;;22.50;99.90;;;;;;5028138;28;20054;-83
2023/08/27 10:51:09;;;;;;;2.20;1.15;;;22.60;99.90;;;;;;5014637;28;20042;-83
2023/08/27 10:53:49;;;;;;;2.13;1.23;;;22.70;99.90;;;;;;5012763;28;20057;-82
2023/08/27 10:56:36;;;;;;;1.95;1.15;;;22.80;99.90;;;;;;5012099;28;20034;-82
2023/08/27 10:59:03;;;;;;;3.63;2.10;;;22.90;99.90;;;;;;5017277;28;20097;-82
2023/08/27 11:01:35;;;;;;;1.27;0.88;;;22.90;99.90;;;;;;5016575;28;20041;-84
2023/08/27 11:04:06;;;;;;;3.30;1.73;;;23.00;99.90;;;;;;5015040;28;20045;-82
2023/08/27 11:06:47;;;;;;;2.60;1.30;;;23.00;99.90;;;;;;5015218;28;20053;-82
2023/08/27 11:09:16;;;;;;;;;;;23.00;99.90;;;;;;5017091;28;20098;-84
2023/08/27 11:11:50;;;;;;;2.53;1.20;;;22.80;99.90;;;;;;5011725;28;19919;-83
2023/08/27 11:14:19;;;;;;;2.05;1.15;;;22.60;99.90;;;;;;5026637;28;20053;-82
2023/08/27 11:16:58;;;;;;;1.35;0.75;;;22.50;99.90;;;;;;5014336;28;20034;-82
2023/08/27 11:19:45;;;;;;;2.97;1.02;;;22.40;99.90;;;;;;5010108;28;20038;-81
2023/08/27 11:22:18;;;;;;;2.72;1.17;;;22.20;99.90;;;;;;5011759;28;20041;-82
2023/08/27 11:24:49;;;;;;;2.90;0.90;;;22.00;99.90;;;;;;5011023;28;20026;-82
2023/08/27 11:27:17;;;;;;;2.28;1.30;;;21.90;99.90;;;;;;5011448;28;20030;-83
2023/08/27 11:29:46;;;;;;;2.45;1.27;;;21.70;1.00;;;;;;5013863;28;20041;-84
2023/08/27 11:32:14;;;;;;;2.20;1.00;;;21.40;1.00;;;;;;5014412;28;20045;-88
2023/08/27 11:34:42;;;;;;;2.65;1.27;;;20.90;1.00;;;;;;5014775;28;20041;-88
2023/08/27 11:37:09;;;;;;;4.18;1.08;;;20.50;13.90;;;;;;5012023;28;20049;-89
2023/08/27 11:39:37;;;;;;;2.95;1.20;;;20.10;62.00;;;;;;5010686;28;20045;-88
2023/08/27 11:42:14;;;;;;;2.85;1.10;;;20.00;99.90;;;;;;5017241;28;20117;-87
2023/08/27 11:44:48;;;;;;;3.08;1.98;;;20.00;99.90;;;;;;5010727;28;20455;-87
2023/08/27 11:47:14;;;;;;;2.47;1.38;;;19.70;99.90;;;;;;5012440;28;20353;-86
2023/08/27 11:49:40;;;;;;;4.05;2.60;;;19.60;1.00;;;;;;5037756;28;20394;-87
2023/08/27 11:52:07;;;;;;;4.47;1.60;;;19.70;1.00;;;;;;5030236;28;20052;-88
2023/08/27 11:54:34;;;;;;;2.20;1.17;;;19.60;1.00;;;;;;5050840;28;20032;-87
2023/08/27 11:57:04;;;;;;;2.10;1.10;;;19.50;1.00;;;;;;5051079;28;20029;-87
2023/08/27 11:59:31;;;;;;;2.10;1.27;;;19.30;1.00;;;;;;5032474;28;20032;-88
2023/08/27 12:01:57;;;;;;;1.75;0.80;;;19.10;1.00;;;;;;5051319;28;20072;-87
2023/08/27 12:04:27;;;;;;;1.48;0.80;;;18.90;1.00;;;;;;5050710;28;20489;-87
2023/08/27 12:07:05;;;;;;;1.38;0.60;;;18.60;1.00;;;;;;5050726;28;20394;-88
2023/08/27 12:09:35;;;;;;;2.22;1.05;;;18.60;1.00;;;;;;5028099;28;20037;-88
2023/08/27 12:12:03;;;;;;;;;;;18.50;1.00;;;;;;5051319;28;20394;-89
2023/08/27 12:14:29;;;;;;;2.42;0.77;;;18.20;1.00;;;;;;5050055;28;19909;-88
2023/08/27 12:17:03;;;;;;;4.43;1.40;;;18.10;1.00;;;;;;5050694;28;20044;-86
2023/08/27 12:19:30;;;;;;;3.63;1.55;;;18.00;83.80;;;;;;5050444;28;20508;-85
2023/08/27 12:21:57;;;;;;;2.67;1.60;;;18.00;99.90;;;;;;5050330;28;20036;-84
2023/08/27 12:24:43;;;;;;;5.22;1.48;;;17.90;99.90;;;;;;5037830;28;20036;-84
2023/08/27 12:27:17;;;;;;;3.38;1.33;;;17.90;99.90;;;;;;5023943;28;20041;-83
2023/08/27 12:29:45;;;;;;;2.13;1.17;;;17.80;99.90;;;;;;5022034;28;20041;-85
2023/08/27 12:32:16;;;;;;;2.80;1.23;;;17.70;99.90;;;;;;5050959;28;20052;-84
2023/08/27 12:34:44;;;;;;;2.28;1.08;;;17.80;99.90;;;;;;5050273;28;20025;-83
2023/08/27 12:37:13;;;;;;;4.43;1.52;;;17.80;99.90;;;;;;5051102;28;20454;-82
2023/08/27 12:39:41;;;;;;;4.60;1.90;;;17.80;99.90;;;;;;5050145;28;20040;-79
2023/08/27 12:42:08;;;;;;;2.50;1.10;;;17.80;99.90;;;;;;5051113;28;20036;-82
2023/08/27 12:44:35;;;;;;;2.75;1.60;;;18.00;99.90;;;;;;5050108;28;20040;-81
2023/08/27 12:47:02;;;;;;;1.25;0.80;;;18.20;99.90;;;;;;5054332;28;20025;-84
2023/08/27 12:49:29;;;;;;;2.38;0.90;;;18.50;30.00;;;;;;5031600;28;20045;-84
2023/08/27 12:51:56;;;;;;;2.15;1.00;;;18.70;1.00;;;;;;5050460;28;20032;-84
2023/08/27 12:54:22;;;;;;;2.47;0.90;;;19.10;9.00;;;;;;5050624;28;20045;-83